createdAt,value
2023-12-12T00:02:03.810Z,23.27
2023-12-12T00:04:30.819Z,25.00
2023-12-12T00:06:57.807Z,22.67
2023-12-12T00:09:24.865Z,23.40
2023-12-12T00:11:53.722Z,24.87
2023-12-12T00:14:20.711Z,24.50
2023-12-12T00:16:47.768Z,24.33
2023-12-12T00:19:14.845Z,20.20
2023-12-12T00:21:41.837Z,22.93
2023-12-12T00:24:09.356Z,21.43
2023-12-12T00:26:36.356Z,16.80
2023-12-12T00:29:03.293Z,22.73
2023-12-12T00:31:30.372Z,22.80
2023-12-12T00:33:57.471Z,20.63
2023-12-12T00:36:24.568Z,17.97
2023-12-12T00:38:51.498Z,17.63
2023-12-12T00:41:18.442Z,20.63
2023-12-12T00:43:45.417Z,21.97
2023-12-12T00:46:12.474Z,17.97
2023-12-12T00:48:39.590Z,19.30
2023-12-12T00:51:10.119Z,19.40
2023-12-12T00:53:37.091Z,21.83
2023-12-12T00:56:05.137Z,22.00
2023-12-12T00:58:32.175Z,18.33
2023-12-12T01:00:59.200Z,19.23
2023-12-12T01:03:26.340Z,21.60
2023-12-12T01:05:53.441Z,20.33
2023-12-12T01:08:20.407Z,18.27
2023-12-12T01:10:47.325Z,17.73
2023-12-12T01:13:14.278Z,17.13
2023-12-12T01:15:41.236Z,17.63
2023-12-12T01:18:08.590Z,18.47
2023-12-12T01:20:35.627Z,21.23
2023-12-12T01:23:02.553Z,16.30
2023-12-12T01:25:30.629Z,16.90
2023-12-12T01:27:58.103Z,19.30
2023-12-12T01:30:25.117Z,20.60
2023-12-12T01:32:52.087Z,19.90
2023-12-12T01:35:19.052Z,21.83
2023-12-12T01:37:46.189Z,19.20
2023-12-12T01:40:13.404Z,19.27
2023-12-12T01:42:40.354Z,18.63
2023-12-12T01:45:08.542Z,18.53
2023-12-12T01:47:35.924Z,17.77
2023-12-12T01:50:03.546Z,18.20
2023-12-12T01:52:30.828Z,18.10
2023-12-12T01:54:59.239Z,20.63
2023-12-12T01:57:26.509Z,22.23
2023-12-12T01:59:53.967Z,20.07
2023-12-12T02:02:21.155Z,21.50
2023-12-12T02:04:50.622Z,17.63
2023-12-12T02:07:18.741Z,25.37
2023-12-12T02:09:46.018Z,21.43
2023-12-12T02:12:13.081Z,28.10
2023-12-12T02:14:41.060Z,27.40
2023-12-12T02:17:08.121Z,20.53
2023-12-12T02:19:35.217Z,21.47
2023-12-12T02:22:02.422Z,23.03
2023-12-12T02:24:29.382Z,21.33
2023-12-12T02:26:56.848Z,22.43
2023-12-12T02:29:24.113Z,19.67
2023-12-12T02:31:51.074Z,22.77
2023-12-12T02:34:18.107Z,19.93
2023-12-12T02:36:45.812Z,21.53
2023-12-12T02:39:13.684Z,17.40
2023-12-12T02:41:40.610Z,17.57
2023-12-12T02:44:07.613Z,20.27
2023-12-12T02:46:34.639Z,23.13
2023-12-12T02:49:01.690Z,20.63
2023-12-12T02:51:28.746Z,22.40
2023-12-12T02:53:55.715Z,19.53
2023-12-12T02:56:22.685Z,19.90
2023-12-12T02:58:49.840Z,26.20
2023-12-12T03:01:16.910Z,28.50
2023-12-12T03:03:44.301Z,22.83
2023-12-12T03:06:11.313Z,23.67
2023-12-12T03:08:38.285Z,23.97
2023-12-12T03:11:05.316Z,23.20
2023-12-12T03:13:34.355Z,24.73
2023-12-12T03:16:01.615Z,22.27
2023-12-12T03:18:28.889Z,26.30
2023-12-12T03:20:55.941Z,25.57
2023-12-12T03:23:23.550Z,30.63
2023-12-12T03:25:50.604Z,28.87
2023-12-12T03:28:18.764Z,26.23
2023-12-12T03:30:45.824Z,27.03
2023-12-12T03:33:12.857Z,35.07
2023-12-12T03:35:39.969Z,27.87
2023-12-12T03:38:06.954Z,28.27
2023-12-12T03:40:33.961Z,29.23
2023-12-12T03:43:01.005Z,25.97
2023-12-12T03:45:28.094Z,32.00
2023-12-12T03:47:55.220Z,28.53
2023-12-12T03:50:22.266Z,26.73
2023-12-12T03:52:49.216Z,28.43
2023-12-12T03:55:16.231Z,31.30
2023-12-12T03:57:43.240Z,33.83
2023-12-12T04:00:11.883Z,30.47
2023-12-12T04:02:42.368Z,29.10
2023-12-12T04:05:13.144Z,31.93
2023-12-12T04:07:40.624Z,37.63
2023-12-12T04:10:09.112Z,33.57
2023-12-12T04:12:37.289Z,32.10
2023-12-12T04:15:04.770Z,36.43
2023-12-12T04:17:32.415Z,34.50
2023-12-12T04:19:59.803Z,45.13
2023-12-12T04:22:26.913Z,38.23
2023-12-12T04:24:54.050Z,43.00
2023-12-12T04:27:20.989Z,41.17
2023-12-12T04:29:49.055Z,39.77
2023-12-12T04:32:16.388Z,46.77
2023-12-12T04:34:43.639Z,41.40
2023-12-12T04:37:10.733Z,36.33
2023-12-12T04:39:38.208Z,34.43
2023-12-12T04:42:05.853Z,35.43
2023-12-12T04:44:32.929Z,32.07
2023-12-12T04:46:59.976Z,29.73
2023-12-12T04:49:27.181Z,30.63
2023-12-12T04:51:54.357Z,38.43
2023-12-12T04:54:21.373Z,35.87
2023-12-12T04:56:48.356Z,28.87
2023-12-12T04:59:15.311Z,37.47
2023-12-12T05:01:43.462Z,39.47
2023-12-12T05:04:10.542Z,38.83
2023-12-12T05:06:37.554Z,41.60
2023-12-12T05:09:04.840Z,41.50
2023-12-12T05:11:31.903Z,48.03
2023-12-12T05:13:58.981Z,52.87
2023-12-12T05:16:31.731Z,46.57
2023-12-12T05:19:00.336Z,68.23
2023-12-12T05:21:28.130Z,55.13
2023-12-12T05:23:55.385Z,49.67
2023-12-12T05:26:22.422Z,50.73
2023-12-12T05:28:50.098Z,39.27
2023-12-12T05:31:17.253Z,41.83
2023-12-12T05:33:44.510Z,46.70
2023-12-12T05:36:11.919Z,39.90
2023-12-12T05:38:40.363Z,33.27
2023-12-12T05:41:08.101Z,36.37
2023-12-12T05:43:35.538Z,33.00
2023-12-12T05:46:04.374Z,32.57
2023-12-12T05:48:31.734Z,26.63
2023-12-12T05:50:58.954Z,32.80
2023-12-12T05:53:27.728Z,30.67
2023-12-12T05:55:57.153Z,31.60
2023-12-12T05:58:24.404Z,25.03
2023-12-12T06:00:52.899Z,24.30
2023-12-12T06:03:20.566Z,24.33
2023-12-12T06:05:47.586Z,30.60
2023-12-12T06:08:14.555Z,28.60
2023-12-12T06:10:41.629Z,30.47
2023-12-12T06:13:09.783Z,26.33
2023-12-12T06:15:36.871Z,32.60
2023-12-12T06:18:04.072Z,32.73
2023-12-12T06:20:33.624Z,27.03
2023-12-12T06:23:00.796Z,38.63
2023-12-12T06:25:27.911Z,34.33
2023-12-12T06:27:55.104Z,30.97
2023-12-12T06:30:22.256Z,37.67
2023-12-12T06:32:49.600Z,32.77
2023-12-12T06:35:16.725Z,36.43
2023-12-12T06:37:44.236Z,39.23
2023-12-12T06:40:14.571Z,38.03
2023-12-12T06:42:44.969Z,32.93
2023-12-12T06:45:11.958Z,32.20
2023-12-12T06:47:39.025Z,33.37
2023-12-12T06:50:07.164Z,32.70
2023-12-12T06:52:34.832Z,30.17
2023-12-12T06:55:02.145Z,32.80
2023-12-12T06:57:29.768Z,30.50
2023-12-12T06:59:57.325Z,31.40
2023-12-12T07:02:24.302Z,33.97
2023-12-12T07:04:51.395Z,33.60
2023-12-12T07:07:18.649Z,34.23
2023-12-12T07:09:45.665Z,34.20
2023-12-12T07:15:11.120Z,33.97
2023-12-12T07:17:38.386Z,36.23
2023-12-12T07:20:06.946Z,33.77
2023-12-12T07:22:34.025Z,37.47
2023-12-12T07:25:01.304Z,34.10
2023-12-12T07:27:28.480Z,35.13
2023-12-12T07:29:55.484Z,36.73
2023-12-12T07:32:22.509Z,40.43
2023-12-12T07:34:49.520Z,36.13
2023-12-12T07:37:16.645Z,36.47
2023-12-12T07:39:43.618Z,36.33
2023-12-12T07:42:10.632Z,42.40
2023-12-12T07:44:37.622Z,40.83
2023-12-12T07:47:04.897Z,35.63
2023-12-12T07:49:32.236Z,37.30
2023-12-12T07:51:59.324Z,39.17
2023-12-12T07:54:26.464Z,41.93
2023-12-12T07:56:54.530Z,41.60
2023-12-12T07:59:21.573Z,45.27
2023-12-12T08:01:49.263Z,42.27
2023-12-12T08:04:16.860Z,44.17
2023-12-12T08:06:44.074Z,45.23
2023-12-12T08:09:11.385Z,46.93
2023-12-12T08:11:38.470Z,49.27
2023-12-12T08:14:05.606Z,46.40
2023-12-12T08:16:33.346Z,46.80
2023-12-12T08:19:00.535Z,48.23
2023-12-12T08:21:27.694Z,52.13
2023-12-12T08:23:55.675Z,46.03
2023-12-12T08:26:25.759Z,51.43
2023-12-12T08:28:53.075Z,39.13
2023-12-12T08:31:20.296Z,37.07
2023-12-12T08:33:47.448Z,39.10
2023-12-12T08:36:14.496Z,45.40
2023-12-12T08:38:41.593Z,39.17
2023-12-12T08:41:11.256Z,39.17
2023-12-12T08:43:41.511Z,60.00
2023-12-12T08:46:08.578Z,49.87
2023-12-12T08:48:35.594Z,45.73
2023-12-12T08:51:02.683Z,42.60
2023-12-12T08:53:30.745Z,34.73
2023-12-12T08:55:57.834Z,35.23
2023-12-12T08:58:25.032Z,42.90
2023-12-12T09:00:55.648Z,42.87
2023-12-12T09:03:22.896Z,40.97
2023-12-12T09:05:50.608Z,32.67
2023-12-12T09:08:18.203Z,29.10
2023-12-12T09:10:45.847Z,27.73
2023-12-12T09:13:13.120Z,28.63
2023-12-12T09:15:40.146Z,22.60
2023-12-12T09:18:16.742Z,28.17
2023-12-12T09:20:48.067Z,23.23
2023-12-12T09:23:16.768Z,21.90
2023-12-12T09:25:44.302Z,24.60
2023-12-12T09:28:11.333Z,28.70
2023-12-12T09:30:38.725Z,25.03
2023-12-12T09:33:05.864Z,28.47
2023-12-12T09:35:36.185Z,34.23
2023-12-12T09:38:03.867Z,25.97
2023-12-12T09:40:31.407Z,25.10
2023-12-12T09:42:59.127Z,27.60
2023-12-12T09:45:26.525Z,23.97
2023-12-12T09:47:55.654Z,26.03
2023-12-12T09:50:22.781Z,30.43
2023-12-12T09:52:50.918Z,24.47
2023-12-12T09:55:23.627Z,29.13
2023-12-12T09:57:51.029Z,36.13
2023-12-12T10:00:19.437Z,26.77
2023-12-12T10:02:47.480Z,29.13
2023-12-12T10:05:16.189Z,31.53
2023-12-12T10:07:44.623Z,37.37
2023-12-12T10:10:15.954Z,27.43
2023-12-12T10:12:43.014Z,27.03
2023-12-12T10:15:24.453Z,26.17
2023-12-12T10:17:59.439Z,26.73
2023-12-12T10:20:28.545Z,23.80
2023-12-12T10:23:02.332Z,26.30
2023-12-12T10:25:31.218Z,21.37
2023-12-12T10:27:59.216Z,21.27
2023-12-12T10:30:27.839Z,19.33
2023-12-12T10:32:56.775Z,21.33
2023-12-12T10:35:26.519Z,17.47
2023-12-12T10:37:54.600Z,15.83
2023-12-12T10:40:24.686Z,19.80
2023-12-12T10:42:52.860Z,18.87
2023-12-12T10:45:22.021Z,15.33
2023-12-12T10:47:52.322Z,12.97
2023-12-12T10:50:20.402Z,12.30
2023-12-12T10:52:49.834Z,12.93
2023-12-12T10:55:18.210Z,13.60
2023-12-12T10:57:48.332Z,13.53
2023-12-12T11:00:19.481Z,15.70
2023-12-12T11:02:49.094Z,15.10
2023-12-12T11:05:17.517Z,13.83
2023-12-12T11:07:48.178Z,15.93
2023-12-12T11:10:20.561Z,17.77
2023-12-12T11:12:53.143Z,18.27
2023-12-12T11:15:21.570Z,11.43
2023-12-12T11:17:49.104Z,14.47
2023-12-12T11:20:19.163Z,13.80
2023-12-12T11:22:49.393Z,20.93
2023-12-12T11:25:21.017Z,17.50
2023-12-12T11:27:54.474Z,17.00
2023-12-12T11:30:32.807Z,17.47
2023-12-12T11:33:00.148Z,18.27
2023-12-12T11:35:33.760Z,20.73
2023-12-12T11:38:07.111Z,20.67
2023-12-12T11:40:36.343Z,21.67
2023-12-12T11:43:25.774Z,20.73
2023-12-12T11:45:55.723Z,20.70
2023-12-12T11:48:23.419Z,16.70
2023-12-12T11:50:51.046Z,22.27
2023-12-12T11:53:39.397Z,19.10
2023-12-12T11:56:06.694Z,20.73
2023-12-12T11:58:33.772Z,16.40
2023-12-12T12:01:00.873Z,18.57
2023-12-12T12:03:27.927Z,18.60
2023-12-12T12:05:55.383Z,17.43
2023-12-12T12:08:25.993Z,20.47
2023-12-12T12:10:59.576Z,22.50
2023-12-12T12:13:42.046Z,13.70
2023-12-12T12:16:10.173Z,15.73
2023-12-12T12:18:39.036Z,15.27
2023-12-12T12:21:09.184Z,15.13
2023-12-12T12:23:40.387Z,18.27
2023-12-12T12:26:07.957Z,19.30
2023-12-12T12:28:36.161Z,19.37
2023-12-12T12:31:06.161Z,18.13
2023-12-12T12:33:39.118Z,22.10
2023-12-12T12:36:07.172Z,20.87
2023-12-12T12:38:34.432Z,24.47
2023-12-12T12:41:01.499Z,31.27
2023-12-12T12:43:28.753Z,30.47
2023-12-12T12:45:57.763Z,24.97
2023-12-12T12:48:29.269Z,21.60
2023-12-12T12:50:57.961Z,21.03
2023-12-12T12:53:24.955Z,24.93
2023-12-12T12:55:52.219Z,28.57
2023-12-12T12:58:19.258Z,31.77
2023-12-12T13:00:47.446Z,34.37
2023-12-12T13:03:15.095Z,34.67
2023-12-12T13:05:42.467Z,36.60
2023-12-12T13:08:10.262Z,34.20
2023-12-12T13:10:46.800Z,35.27
2023-12-12T13:13:20.502Z,34.87
2023-12-12T13:15:47.843Z,37.00
2023-12-12T13:18:15.571Z,43.17
2023-12-12T13:20:46.684Z,39.63
2023-12-12T13:23:13.785Z,50.83
2023-12-12T13:25:42.199Z,67.27
2023-12-12T13:28:09.351Z,55.23
2023-12-12T13:30:37.556Z,45.27
2023-12-12T13:33:07.811Z,39.57
2023-12-12T13:35:37.473Z,36.17
2023-12-12T13:38:05.363Z,57.90
2023-12-12T13:40:33.424Z,53.47
2023-12-12T13:43:01.005Z,42.50
2023-12-12T13:45:28.267Z,38.47
2023-12-12T13:47:55.740Z,50.87
2023-12-12T13:50:23.508Z,44.43
2023-12-12T13:52:50.596Z,36.80
2023-12-12T13:55:17.605Z,50.13
2023-12-12T13:57:45.667Z,38.40
2023-12-12T14:00:17.602Z,40.50
2023-12-12T14:02:46.354Z,39.87
2023-12-12T14:05:13.902Z,38.50
2023-12-12T14:07:41.113Z,42.10
2023-12-12T14:10:08.660Z,39.53
2023-12-12T14:12:36.978Z,40.83
2023-12-12T14:15:05.577Z,34.37
2023-12-12T14:17:33.101Z,41.33
2023-12-12T14:20:01.337Z,45.60
2023-12-12T14:22:28.677Z,42.80
2023-12-12T14:24:55.719Z,55.53
2023-12-12T14:27:23.444Z,50.90
2023-12-12T14:29:50.481Z,44.00
2023-12-12T14:32:20.398Z,54.03
2023-12-12T14:34:47.483Z,58.60
2023-12-12T14:37:14.676Z,59.27
2023-12-12T14:39:42.064Z,48.47
2023-12-12T14:42:09.076Z,54.43
2023-12-12T14:44:36.015Z,53.03
2023-12-12T14:47:02.946Z,45.83
2023-12-12T14:49:30.036Z,61.80
2023-12-12T14:51:58.119Z,49.43
2023-12-12T14:54:25.668Z,61.27
2023-12-12T14:56:57.763Z,49.53
2023-12-12T14:59:29.355Z,57.63
2023-12-12T15:01:56.342Z,50.50
2023-12-12T15:04:23.342Z,63.47
2023-12-12T15:06:50.309Z,59.50
2023-12-12T15:09:17.756Z,64.57
2023-12-12T15:11:44.786Z,66.10
2023-12-12T15:14:11.847Z,60.60
2023-12-12T15:16:40.098Z,63.53
2023-12-12T15:19:09.129Z,58.07
2023-12-12T15:21:36.143Z,63.90
2023-12-12T15:24:03.470Z,53.80
2023-12-12T15:26:32.325Z,50.67
2023-12-12T15:29:02.311Z,61.77
2023-12-12T15:31:32.429Z,46.27
2023-12-12T15:33:59.638Z,45.23
2023-12-12T15:36:26.646Z,39.63
2023-12-12T15:38:53.672Z,42.40
2023-12-12T15:41:20.650Z,42.83
2023-12-12T15:43:47.631Z,44.93
2023-12-12T15:46:19.406Z,50.67
2023-12-12T15:48:47.251Z,43.30
2023-12-12T15:51:15.034Z,49.07
2023-12-12T15:53:42.042Z,53.03
2023-12-12T15:56:12.904Z,42.13
2023-12-12T15:58:43.303Z,37.50
2023-12-12T16:01:11.547Z,34.83
2023-12-12T16:03:39.327Z,37.00
2023-12-12T16:06:07.742Z,39.33
2023-12-12T16:08:35.091Z,38.23
2023-12-12T16:11:02.129Z,40.30
2023-12-12T16:13:29.921Z,39.60
2023-12-12T16:15:57.012Z,45.43
2023-12-12T16:18:25.328Z,46.83
2023-12-12T16:20:52.457Z,40.03
2023-12-12T16:23:19.488Z,41.40
2023-12-12T16:25:46.612Z,39.93
2023-12-12T16:28:14.446Z,31.13
2023-12-12T16:30:41.545Z,30.90
2023-12-12T16:33:11.958Z,38.33
2023-12-12T16:35:39.138Z,43.83
2023-12-12T16:38:06.222Z,37.43
2023-12-12T16:40:40.838Z,40.57
2023-12-12T16:43:08.024Z,47.97
2023-12-12T16:45:35.057Z,36.80
2023-12-12T16:48:02.242Z,35.00
2023-12-12T16:50:29.442Z,36.10
2023-12-12T16:52:56.612Z,41.27
2023-12-12T16:55:23.855Z,44.27
2023-12-12T16:57:51.501Z,57.87
2023-12-12T17:00:18.847Z,52.37
2023-12-12T17:02:47.284Z,71.50
2023-12-12T17:05:15.147Z,63.37
2023-12-12T17:07:43.020Z,57.00
2023-12-12T17:10:10.833Z,43.87
2023-12-12T17:12:38.965Z,56.00
2023-12-12T17:15:07.374Z,54.27
2023-12-12T17:17:35.113Z,58.87
2023-12-12T17:20:02.929Z,58.67
2023-12-12T17:22:30.501Z,71.97
2023-12-12T17:24:58.184Z,62.93
2023-12-12T17:27:25.327Z,56.80
2023-12-12T17:29:52.352Z,42.50
2023-12-12T17:32:19.272Z,42.13
2023-12-12T17:34:50.366Z,45.43
2023-12-12T17:37:17.513Z,48.07
2023-12-12T17:39:44.480Z,40.13
2023-12-12T17:42:11.458Z,102.20
2023-12-12T17:44:38.448Z,88.33
2023-12-12T17:47:05.621Z,45.93
2023-12-12T17:49:32.674Z,39.20
2023-12-12T17:51:59.715Z,51.73
2023-12-12T17:54:26.638Z,98.83
2023-12-12T17:56:53.600Z,126.97
2023-12-12T17:59:20.588Z,45.07
2023-12-12T18:01:47.682Z,37.50
2023-12-12T18:04:15.380Z,30.60
2023-12-12T18:06:42.427Z,33.60
2023-12-12T18:09:11.166Z,30.60
2023-12-12T18:11:39.179Z,32.63
2023-12-12T18:14:06.258Z,35.20
2023-12-12T18:16:33.870Z,30.37
2023-12-12T18:19:03.570Z,28.17
2023-12-12T18:21:31.546Z,34.27
2023-12-12T18:23:59.301Z,34.53
2023-12-12T18:26:32.280Z,33.67
2023-12-12T18:29:01.177Z,33.93
2023-12-12T18:31:30.761Z,38.60
2023-12-12T18:33:58.914Z,37.83
2023-12-12T18:36:26.348Z,42.17
2023-12-12T18:38:53.582Z,39.77
2023-12-12T18:41:24.217Z,45.97
2023-12-12T18:43:51.272Z,52.83
2023-12-12T18:46:18.460Z,79.83
2023-12-12T18:48:45.690Z,56.80
2023-12-12T18:51:12.931Z,64.37
2023-12-12T18:53:40.372Z,52.03
2023-12-12T18:56:09.268Z,71.70
2023-12-12T18:58:36.862Z,50.93
2023-12-12T19:01:05.227Z,58.43
2023-12-12T19:03:32.549Z,63.60
2023-12-12T19:05:59.676Z,74.03
2023-12-12T19:08:26.625Z,68.43
2023-12-12T19:10:55.075Z,81.70
2023-12-12T19:13:22.143Z,84.93
2023-12-12T19:15:49.140Z,82.10
2023-12-12T19:18:16.218Z,88.40
2023-12-12T19:20:43.343Z,79.77
2023-12-12T19:23:11.680Z,87.87
2023-12-12T19:25:38.738Z,82.27
2023-12-12T19:28:05.889Z,81.27
2023-12-12T19:30:34.220Z,82.13
2023-12-12T19:33:02.052Z,116.87
2023-12-12T19:35:29.065Z,80.67
2023-12-12T19:37:56.122Z,68.90
2023-12-12T19:40:23.222Z,74.70
2023-12-12T19:42:55.468Z,67.40
2023-12-12T19:45:24.722Z,57.57
2023-12-12T19:47:52.339Z,72.73
2023-12-12T19:50:19.562Z,72.13
2023-12-12T19:52:48.069Z,74.13
2023-12-12T19:55:15.265Z,81.10
2023-12-12T19:57:42.299Z,84.90
2023-12-12T20:00:10.580Z,109.50
2023-12-12T20:02:40.537Z,107.67
2023-12-12T20:05:09.004Z,102.83
2023-12-12T20:07:38.932Z,103.97
2023-12-12T20:10:06.748Z,88.97
2023-12-12T20:12:33.747Z,86.83
2023-12-12T20:15:01.106Z,90.17
2023-12-12T20:17:28.559Z,96.13
2023-12-12T20:19:55.677Z,90.27
2023-12-12T20:22:22.763Z,101.27
2023-12-12T20:24:49.972Z,108.17
2023-12-12T20:27:16.944Z,100.77
2023-12-12T20:29:44.219Z,103.60
2023-12-12T20:32:11.512Z,100.87
2023-12-12T20:34:38.684Z,90.17
2023-12-12T20:37:05.812Z,62.27
2023-12-12T20:39:32.929Z,61.23
2023-12-12T20:41:59.967Z,66.17
2023-12-12T20:44:27.065Z,59.33
2023-12-12T20:46:54.059Z,56.60
2023-12-12T20:49:23.817Z,54.37
2023-12-12T20:51:53.182Z,54.17
2023-12-12T20:58:54.519Z,76.37
2023-12-12T21:01:21.557Z,82.27
2023-12-12T21:03:49.041Z,91.93
2023-12-12T21:06:16.050Z,95.43
2023-12-12T21:08:43.046Z,66.77
2023-12-12T21:11:16.332Z,51.83
2023-12-12T21:13:43.384Z,42.57
2023-12-12T21:16:20.472Z,44.07
2023-12-12T21:18:47.600Z,43.77
2023-12-12T21:21:14.848Z,47.77
2023-12-12T21:23:41.778Z,43.60
2023-12-12T21:26:09.070Z,44.70
2023-12-12T21:28:39.594Z,45.47
2023-12-12T21:31:07.443Z,48.97
2023-12-12T21:33:34.798Z,44.23
2023-12-12T21:36:01.879Z,45.20
2023-12-12T21:38:29.826Z,44.00
2023-12-12T21:40:57.023Z,42.43
2023-12-12T21:43:24.173Z,49.67
2023-12-12T21:45:52.427Z,39.97
2023-12-12T21:48:19.711Z,39.93
2023-12-12T21:50:46.793Z,44.77
2023-12-12T21:53:13.716Z,46.53
2023-12-12T21:55:41.162Z,49.47
2023-12-12T21:58:08.239Z,45.77
2023-12-12T22:00:35.301Z,39.70
2023-12-12T22:03:02.361Z,42.60
2023-12-12T22:05:29.450Z,41.40
2023-12-12T22:07:56.768Z,41.23
2023-12-12T22:10:24.204Z,48.43
2023-12-12T22:12:51.313Z,42.40
2023-12-12T22:15:18.273Z,41.63
2023-12-12T22:17:45.343Z,45.77
2023-12-12T22:20:12.866Z,41.93
2023-12-12T22:22:40.458Z,48.37
2023-12-12T22:25:08.332Z,45.77
2023-12-12T22:27:36.249Z,41.63
2023-12-12T22:30:03.329Z,40.83
2023-12-12T22:32:30.387Z,44.10
2023-12-12T22:34:57.508Z,40.90
2023-12-12T22:37:24.528Z,38.90
2023-12-12T22:39:51.502Z,48.20
2023-12-12T22:42:18.491Z,40.20
2023-12-12T22:44:45.498Z,57.87
2023-12-12T22:47:12.498Z,51.87
2023-12-12T22:49:39.639Z,57.63
2023-12-12T22:52:07.032Z,48.40
2023-12-12T22:54:34.161Z,55.83
2023-12-12T22:57:01.352Z,55.50
2023-12-12T22:59:28.409Z,59.20
2023-12-12T23:01:55.646Z,54.00
2023-12-12T23:04:22.808Z,54.70
2023-12-12T23:06:51.072Z,50.13
2023-12-12T23:09:22.985Z,54.40
2023-12-12T23:11:50.355Z,48.77
2023-12-12T23:14:17.668Z,56.37
2023-12-12T23:16:44.887Z,82.77
2023-12-12T23:19:12.060Z,69.10
2023-12-12T23:21:39.099Z,88.00
2023-12-12T23:24:06.714Z,100.90
2023-12-12T23:26:33.714Z,112.33
2023-12-12T23:29:00.666Z,105.40
2023-12-12T23:31:27.734Z,73.60
2023-12-12T23:33:54.765Z,61.53
2023-12-12T23:36:21.787Z,55.57
2023-12-12T23:38:48.837Z,55.17
2023-12-12T23:41:15.909Z,50.20
2023-12-12T23:43:43.036Z,46.30
2023-12-12T23:46:10.183Z,49.13
2023-12-12T23:48:37.979Z,50.47
2023-12-12T23:51:05.437Z,55.83
2023-12-12T23:53:34.654Z,45.17
2023-12-12T23:56:02.728Z,52.50
2023-12-12T23:58:29.826Z,57.60
